CheckWX is a tool to help pilots better visualize weather data.  It is not intended as a substitute for an official pre-flight weather briefing.

03:28:34 UTC

HKML TAF
Malindi Airport
Malindi, Kenya
TAF HKML 252300Z 2600/2624 18010KT 9999 SCT020 TEMPO 2603/2606 24005KT -SHRA SCT018 BKN080 BECMG 2609/2615 18010G20KT SCT025

Aug-26@
00:00 UTC

Aug-26 @ 00:00 UTC

Aug-26@
09:00 UTC

Aug-26 @ 09:00 UTC

TAF HKML 252300Z 2600/2624 18010KT 9999 SCT020
Wind
  • 180° at 10 KTS
Cloud Levels
  • Scattered at 2,000' AGL

Aug-26@
03:00 UTC

Aug-26 @ 03:00 UTC

Aug-26@
06:00 UTC

Aug-26 @ 06:00 UTC

TEMPO 2603/2606 24005KT -SHRA SCT018 BKN080

Temporary

Temporary Changes expected for less than half the time period

Wind
  • 240° at 5 KTS
Conditions
Light Rain
Cloud Levels
  • Scattered at 1,800' AGL
  • Broken at 8,000' AGL

Aug-26@
09:00 UTC

Aug-26 @ 09:00 UTC

Aug-27@
00:00 UTC

Aug-27 @ 00:00 UTC

BECMG 2609/2615 18010G20KT SCT025

Becoming

Becoming Conditions expected by Mon, Aug 26, 2019 @ 15:00 UTC

Wind
  • 180° at 10 KTS
  • {Gusting to 20 KTS
Cloud Levels
  • Scattered at 2,500' AGL